createdAt,value
2022-10-12T00:01:15.658Z,41.17
2022-10-12T00:03:43.723Z,39.03
2022-10-12T00:06:20.051Z,33.75
2022-10-12T00:08:51.055Z,36.53
2022-10-12T00:11:24.382Z,36.45
2022-10-12T00:13:52.922Z,35.75
2022-10-12T00:16:23.236Z,35.22
2022-10-12T00:18:57.010Z,37.47
2022-10-12T00:21:26.915Z,35.65
2022-10-12T00:24:01.665Z,28.85
2022-10-12T00:26:30.440Z,36.78
2022-10-12T00:29:01.296Z,37.50
2022-10-12T00:31:30.188Z,33.80
2022-10-12T00:34:04.140Z,35.10
2022-10-12T00:36:35.957Z,38.88
2022-10-12T00:39:08.198Z,32.70
2022-10-12T00:41:42.878Z,44.42
2022-10-12T00:44:35.470Z,48.08
2022-10-12T00:47:23.811Z,30.88
2022-10-12T00:50:21.083Z,32.17
2022-10-12T00:53:14.539Z,34.63
2022-10-12T00:55:58.016Z,32.15
2022-10-12T00:58:26.702Z,35.38
2022-10-12T01:00:54.583Z,35.28
2022-10-12T01:03:23.495Z,29.85
2022-10-12T01:05:52.055Z,36.65
2022-10-12T01:08:29.226Z,33.47
2022-10-12T01:10:57.772Z,31.35
2022-10-12T01:14:03.128Z,31.75
2022-10-12T01:16:47.352Z,35.78
2022-10-12T01:19:45.938Z,36.15
2022-10-12T01:22:49.817Z,33.83
2022-10-12T01:26:30.708Z,28.65
2022-10-12T01:32:46.012Z,39.90
2022-10-12T01:36:06.006Z,31.75
2022-10-12T01:39:09.302Z,30.90
2022-10-12T01:44:11.024Z,23.38
2022-10-12T01:46:43.693Z,37.35
2022-10-12T01:49:14.563Z,32.05
2022-10-12T01:52:27.641Z,38.47
2022-10-12T01:55:35.547Z,26.67
2022-10-12T01:58:24.930Z,31.80
2022-10-12T02:01:29.612Z,30.98
2022-10-12T02:04:33.319Z,27.27
2022-10-12T02:07:17.388Z,28.05
2022-10-12T02:09:45.337Z,30.98
2022-10-12T02:12:19.616Z,31.10
2022-10-12T02:14:55.367Z,26.35
2022-10-12T02:17:24.097Z,21.90
2022-10-12T02:19:58.107Z,29.42
2022-10-12T02:22:34.515Z,25.08
2022-10-12T02:25:08.070Z,26.45
2022-10-12T02:27:40.423Z,28.73
2022-10-12T02:30:09.979Z,28.15
2022-10-12T02:32:58.524Z,30.50
2022-10-12T02:35:45.635Z,28.05
2022-10-12T02:38:33.167Z,36.72
2022-10-12T02:41:08.039Z,25.08
2022-10-12T02:43:49.019Z,24.00
2022-10-12T02:46:20.369Z,31.90
2022-10-12T02:48:50.799Z,32.38
2022-10-12T02:51:19.819Z,26.50
2022-10-12T02:53:48.315Z,34.58
2022-10-12T02:56:16.943Z,33.45
2022-10-12T02:58:47.353Z,27.58
2022-10-12T03:01:17.254Z,28.60
2022-10-12T03:03:46.281Z,26.20
2022-10-12T03:06:14.679Z,26.95
2022-10-12T03:08:42.605Z,25.73
2022-10-12T03:11:14.689Z,30.98
2022-10-12T03:13:42.520Z,31.98
2022-10-12T03:16:12.021Z,27.75
2022-10-12T03:18:41.017Z,26.27
2022-10-12T03:21:09.651Z,27.73
2022-10-12T03:23:38.644Z,30.92
2022-10-12T03:26:07.398Z,31.73
2022-10-12T03:28:35.746Z,29.27
2022-10-12T03:31:03.998Z,35.95
2022-10-12T03:33:31.932Z,28.85
2022-10-12T03:36:00.024Z,32.40
2022-10-12T03:38:28.480Z,33.03
2022-10-12T03:40:57.554Z,29.30
2022-10-12T03:43:25.808Z,33.20
2022-10-12T03:45:54.361Z,27.90
2022-10-12T03:48:22.479Z,30.70
2022-10-12T03:50:52.392Z,23.77
2022-10-12T03:53:20.866Z,28.10
2022-10-12T03:55:48.966Z,20.33
2022-10-12T03:58:16.880Z,27.63
2022-10-12T04:00:45.180Z,25.88
2022-10-12T04:03:13.302Z,30.38
2022-10-12T04:05:41.143Z,25.67
2022-10-12T04:08:12.015Z,30.23
2022-10-12T04:10:40.619Z,28.08
2022-10-12T04:13:08.478Z,27.10
2022-10-12T04:15:36.424Z,30.27
2022-10-12T04:18:04.648Z,35.20
2022-10-12T04:20:32.533Z,29.13
2022-10-12T04:23:00.714Z,26.83
2022-10-12T04:25:30.243Z,27.17
2022-10-12T04:27:58.513Z,28.17
2022-10-12T04:30:26.424Z,27.67
2022-10-12T04:32:54.556Z,30.05
2022-10-12T04:35:23.790Z,39.38
2022-10-12T04:37:53.880Z,42.70
2022-10-12T04:40:23.313Z,29.10
2022-10-12T04:42:51.140Z,24.08
2022-10-12T04:45:19.164Z,37.55
2022-10-12T04:47:47.055Z,35.55
2022-10-12T04:50:16.143Z,23.52
2022-10-12T04:52:44.195Z,27.92
2022-10-12T04:55:12.588Z,26.88
2022-10-12T04:57:41.150Z,27.02
2022-10-12T05:00:10.411Z,31.17
2022-10-12T05:02:38.615Z,23.20
2022-10-12T05:05:06.991Z,22.98
2022-10-12T05:07:35.065Z,28.40
2022-10-12T05:10:03.712Z,20.10
2022-10-12T05:12:31.503Z,22.65
2022-10-12T05:14:59.445Z,24.80
2022-10-12T05:17:27.487Z,23.10
2022-10-12T05:19:55.421Z,25.42
2022-10-12T05:22:23.374Z,29.98
2022-10-12T05:24:53.945Z,29.88
2022-10-12T05:27:22.212Z,29.83
2022-10-12T05:29:50.297Z,33.50
2022-10-12T05:32:19.130Z,38.00
2022-10-12T05:34:47.206Z,37.88
2022-10-12T05:37:15.171Z,32.53
2022-10-12T05:39:43.497Z,28.90
2022-10-12T05:42:12.692Z,31.73
2022-10-12T05:44:40.681Z,24.88
2022-10-12T05:47:09.003Z,26.75
2022-10-12T05:49:38.287Z,29.08
2022-10-12T05:52:06.299Z,24.33
2022-10-12T05:54:34.507Z,22.80
2022-10-12T05:57:03.165Z,29.10
2022-10-12T05:59:31.194Z,21.17
2022-10-12T06:01:59.231Z,25.73
2022-10-12T06:04:27.495Z,21.83
2022-10-12T06:06:55.681Z,21.00
2022-10-12T06:09:24.916Z,26.92
2022-10-12T06:11:52.760Z,20.92
2022-10-12T06:14:20.633Z,22.10
2022-10-12T06:16:52.332Z,21.00
2022-10-12T06:19:22.535Z,21.27
2022-10-12T06:21:50.646Z,20.88
2022-10-12T06:24:18.485Z,20.45
2022-10-12T06:26:46.293Z,20.85
2022-10-12T06:29:15.010Z,23.67
2022-10-12T06:31:45.521Z,22.60
2022-10-12T06:34:16.128Z,20.60
2022-10-12T06:36:44.067Z,18.77
2022-10-12T06:39:12.243Z,26.38
2022-10-12T06:41:41.163Z,23.45
2022-10-12T06:44:10.410Z,20.55
2022-10-12T06:46:38.268Z,18.95
2022-10-12T06:49:06.509Z,26.08
2022-10-12T06:51:34.389Z,23.73
2022-10-12T06:54:02.537Z,18.90
2022-10-12T06:56:31.666Z,17.95
2022-10-12T09:40:07.615Z,18.63
2022-10-12T09:42:36.500Z,20.38
2022-10-12T09:45:19.955Z,20.58
2022-10-12T09:48:18.184Z,20.65
2022-10-12T09:51:02.143Z,15.32
2022-10-12T09:53:35.458Z,13.88
2022-10-12T09:56:30.564Z,15.73
2022-10-12T09:59:04.927Z,14.90
2022-10-12T10:01:36.545Z,13.35
2022-10-12T10:06:51.387Z,17.17
2022-10-12T10:09:35.672Z,17.20
2022-10-12T10:12:24.318Z,13.07
2022-10-12T10:14:56.829Z,18.38
2022-10-12T10:17:29.207Z,18.15
2022-10-12T10:19:59.255Z,16.27
2022-10-12T10:22:29.484Z,20.13
2022-10-12T10:25:00.938Z,17.58
2022-10-12T10:30:32.144Z,13.07
2022-10-12T10:33:36.355Z,16.88
2022-10-12T10:36:26.861Z,21.25
2022-10-12T10:39:05.432Z,20.85
2022-10-12T10:41:40.766Z,18.08
2022-10-12T10:44:36.334Z,11.20
2022-10-12T10:47:12.427Z,5.57
2022-10-12T10:49:49.426Z,11.88
2022-10-12T10:52:37.580Z,24.42
2022-10-12T10:55:22.227Z,13.45
2022-10-12T10:58:06.244Z,18.50
2022-10-12T11:00:42.986Z,13.25
2022-10-12T11:03:26.245Z,6.82
2022-10-12T11:06:38.590Z,28.60
2022-10-12T11:09:32.625Z,21.02
2022-10-12T11:12:15.069Z,11.55
2022-10-12T11:14:55.635Z,14.00
2022-10-12T11:17:33.336Z,11.85
2022-10-12T11:20:41.821Z,13.43
2022-10-12T11:23:52.031Z,12.90
2022-10-12T11:26:41.339Z,10.88
2022-10-12T11:29:15.151Z,13.43
2022-10-12T11:32:22.586Z,11.73
2022-10-12T11:35:01.884Z,8.52
2022-10-12T11:37:53.189Z,6.57
2022-10-12T11:43:55.794Z,14.10
2022-10-12T11:46:53.724Z,14.82
2022-10-12T11:50:03.446Z,12.05
2022-10-12T11:52:54.214Z,10.60
2022-10-12T11:55:56.454Z,15.30
2022-10-12T11:58:48.641Z,13.05
2022-10-12T12:02:01.804Z,9.65
2022-10-12T12:04:42.174Z,10.88
2022-10-12T12:07:41.794Z,8.73
2022-10-12T12:10:28.152Z,6.65
2022-10-12T12:13:15.078Z,13.35
2022-10-12T12:15:52.759Z,12.15
2022-10-12T12:18:24.847Z,10.07
2022-10-12T12:21:08.180Z,13.23
2022-10-12T12:23:53.827Z,11.35
2022-10-12T12:29:17.840Z,8.50
2022-10-12T12:31:59.298Z,9.45
2022-10-12T12:34:28.669Z,9.57
2022-10-12T12:36:58.587Z,10.27
2022-10-12T12:39:32.039Z,11.35
2022-10-12T12:42:07.346Z,13.23
2022-10-12T12:44:37.049Z,10.50
2022-10-12T12:47:26.124Z,10.18
2022-10-12T12:50:01.457Z,11.15
2022-10-12T12:52:38.810Z,10.48
2022-10-12T12:55:34.827Z,12.88
2022-10-12T12:58:05.422Z,11.02
2022-10-12T13:00:51.821Z,19.60
2022-10-12T13:03:56.078Z,12.52
2022-10-12T13:06:30.602Z,9.65
2022-10-12T13:09:53.311Z,14.07
2022-10-12T13:12:46.313Z,11.30
2022-10-12T13:15:41.971Z,11.52
2022-10-12T13:19:26.175Z,8.43
2022-10-12T13:21:56.707Z,12.93
2022-10-12T13:24:34.900Z,9.88
2022-10-12T13:27:23.250Z,11.82
2022-10-12T13:30:04.776Z,11.05
2022-10-12T13:32:44.956Z,10.15
2022-10-12T13:35:23.150Z,14.02
2022-10-12T13:38:16.673Z,11.20
2022-10-12T13:40:53.544Z,10.38
2022-10-12T13:43:45.053Z,14.48
2022-10-12T13:46:51.776Z,17.60
2022-10-12T13:49:34.409Z,16.65
2022-10-12T13:52:31.808Z,22.15
2022-10-12T13:55:01.656Z,22.10
2022-10-12T13:57:46.494Z,13.93
2022-10-12T14:00:14.626Z,15.13
2022-10-12T14:03:06.658Z,10.85
2022-10-12T14:05:46.184Z,13.40
2022-10-12T14:08:21.686Z,7.10
2022-10-12T14:10:49.751Z,7.30
2022-10-12T14:13:34.481Z,8.60
2022-10-12T14:16:06.332Z,9.00
2022-10-12T14:18:42.119Z,18.02
2022-10-12T14:21:25.638Z,17.08
2022-10-12T14:24:09.790Z,22.63
2022-10-12T14:26:45.015Z,19.15
2022-10-12T14:29:29.401Z,15.88
2022-10-12T14:32:01.608Z,23.05
2022-10-12T14:34:35.497Z,19.17
2022-10-12T14:37:28.078Z,20.30
2022-10-12T14:40:00.714Z,24.15
2022-10-12T14:42:36.500Z,30.45
2022-10-12T14:45:24.283Z,26.63
2022-10-12T14:47:53.076Z,27.58
2022-10-12T14:50:22.443Z,25.35
2022-10-12T14:52:55.208Z,27.92
2022-10-12T14:55:27.506Z,21.88
2022-10-12T14:57:55.844Z,21.20
2022-10-12T15:00:33.281Z,27.60
2022-10-12T15:03:02.367Z,25.17
2022-10-12T15:05:33.235Z,27.60
2022-10-12T15:08:07.730Z,20.63
2022-10-12T15:10:37.208Z,28.00
2022-10-12T15:13:05.408Z,24.67
2022-10-12T15:15:53.397Z,26.17
2022-10-12T15:18:21.587Z,24.38
2022-10-12T15:20:49.960Z,27.83
2022-10-12T15:23:18.539Z,25.05
2022-10-12T15:25:55.987Z,33.35
2022-10-12T15:28:24.468Z,40.55
2022-10-12T15:33:44.414Z,36.25
2022-10-12T15:36:13.976Z,32.08
2022-10-12T15:38:41.841Z,28.17
2022-10-12T15:41:18.950Z,24.52
2022-10-12T15:43:47.069Z,30.20
2022-10-12T15:46:15.414Z,30.30
2022-10-12T15:48:51.300Z,29.02
2022-10-12T15:51:25.227Z,26.83
2022-10-12T15:53:55.340Z,30.75
2022-10-12T15:56:23.413Z,34.20
2022-10-12T15:58:51.542Z,29.27
2022-10-12T16:01:20.834Z,30.83
2022-10-12T16:03:49.827Z,33.83
2022-10-12T16:06:17.853Z,53.55
2022-10-12T16:08:45.827Z,57.92
2022-10-12T16:11:16.619Z,40.17
2022-10-12T16:13:54.051Z,63.37
2022-10-12T16:16:24.677Z,44.50
2022-10-12T16:18:54.321Z,73.50
2022-10-12T16:21:22.372Z,71.28
2022-10-12T16:23:50.600Z,82.45
2022-10-12T16:26:18.687Z,93.07
2022-10-12T16:28:47.072Z,88.55
2022-10-12T16:31:18.067Z,83.30
2022-10-12T16:33:46.261Z,71.50
2022-10-12T16:36:16.833Z,50.65
2022-10-12T16:38:45.278Z,45.45
2022-10-12T16:41:16.908Z,42.78
2022-10-12T16:43:45.113Z,43.13
2022-10-12T16:46:13.734Z,46.85
2022-10-12T16:48:41.809Z,79.35
2022-10-12T16:51:12.404Z,66.97
2022-10-12T16:53:42.632Z,63.07
2022-10-12T16:56:11.238Z,66.57
2022-10-12T16:58:39.125Z,64.13
2022-10-12T17:01:15.257Z,71.53
2022-10-12T17:03:43.468Z,71.82
2022-10-12T17:06:11.676Z,52.88
2022-10-12T17:08:39.985Z,52.75
2022-10-12T17:11:17.023Z,57.90
2022-10-12T17:13:49.013Z,67.80
2022-10-12T17:16:37.152Z,59.30
2022-10-12T17:19:05.791Z,66.50
2022-10-12T17:21:36.556Z,61.53
2022-10-12T17:24:05.747Z,64.35
2022-10-12T17:26:38.600Z,55.78
2022-10-12T17:29:13.274Z,58.60
2022-10-12T17:31:42.792Z,57.50
2022-10-12T17:34:30.672Z,47.13
2022-10-12T17:37:02.025Z,50.72
2022-10-12T17:39:34.624Z,43.70
2022-10-12T17:42:02.789Z,52.30
2022-10-12T17:44:30.913Z,48.88
2022-10-12T17:46:59.461Z,87.70
2022-10-12T17:49:28.495Z,98.90
2022-10-12T17:51:57.093Z,89.90
2022-10-12T17:54:26.689Z,59.00
2022-10-12T17:56:56.194Z,88.50
2022-10-12T17:59:25.314Z,96.43
2022-10-12T18:01:54.345Z,103.93
2022-10-12T18:04:22.651Z,96.45
2022-10-12T18:06:50.747Z,102.88
2022-10-12T18:09:18.819Z,117.32
2022-10-12T18:11:47.175Z,122.22
2022-10-12T18:14:16.137Z,140.13
2022-10-12T18:16:44.497Z,425.27
2022-10-12T18:19:13.680Z,345.35
2022-10-12T18:21:41.752Z,302.10
2022-10-12T18:24:16.635Z,216.82
2022-10-12T18:26:47.555Z,200.68
2022-10-12T18:29:19.007Z,185.82
2022-10-12T18:31:47.304Z,164.77
2022-10-12T18:34:15.700Z,177.23
2022-10-12T18:36:44.172Z,146.35
2022-10-12T18:39:12.654Z,168.30
2022-10-12T18:41:40.740Z,258.35
2022-10-12T18:44:11.270Z,193.93
2022-10-12T18:46:39.685Z,216.90
2022-10-12T18:49:10.387Z,157.27
2022-10-12T18:51:43.404Z,160.98
2022-10-12T18:54:14.104Z,145.40
2022-10-12T18:56:43.342Z,132.35
2022-10-12T18:59:12.631Z,139.75
2022-10-12T19:01:40.803Z,149.55
2022-10-12T19:04:08.800Z,168.50
2022-10-12T19:06:42.391Z,198.48
2022-10-12T19:09:14.092Z,216.13
2022-10-12T19:14:14.914Z,313.17
2022-10-12T19:16:45.384Z,154.45
2022-10-12T19:19:20.799Z,139.68
2022-10-12T19:21:51.247Z,164.43
2022-10-12T19:24:21.639Z,153.20
2022-10-12T19:26:49.763Z,178.80
2022-10-12T19:29:17.991Z,171.77
2022-10-12T19:31:50.039Z,204.32
2022-10-12T19:34:21.264Z,193.38
2022-10-12T19:36:50.776Z,210.70
2022-10-12T19:39:22.737Z,204.15
2022-10-12T19:41:52.168Z,195.93
2022-10-12T19:44:20.789Z,176.73
2022-10-12T19:46:49.500Z,161.82
2022-10-12T19:49:20.816Z,162.07
2022-10-12T19:51:48.863Z,129.07
2022-10-12T19:54:17.132Z,123.13
2022-10-12T19:56:46.107Z,138.88
2022-10-12T19:59:16.647Z,126.20
2022-10-12T20:01:50.224Z,139.00
2022-10-12T20:04:19.773Z,122.50
2022-10-12T20:06:48.542Z,145.25
2022-10-12T20:09:22.461Z,176.38
2022-10-12T20:11:50.350Z,117.63
2022-10-12T20:14:18.409Z,101.05
2022-10-12T20:16:50.557Z,97.47
2022-10-12T20:19:18.641Z,113.88
2022-10-12T20:21:47.013Z,102.03
2022-10-12T20:24:15.904Z,118.88
2022-10-12T20:26:44.047Z,104.53
2022-10-12T20:29:12.149Z,91.55
2022-10-12T20:31:43.583Z,91.50
2022-10-12T20:34:12.437Z,82.05
2022-10-12T20:36:40.397Z,90.60
2022-10-12T20:39:08.538Z,96.88
2022-10-12T20:41:36.471Z,92.10
2022-10-12T20:44:04.477Z,109.13
2022-10-12T20:46:33.632Z,113.97
2022-10-12T20:49:03.229Z,104.80
2022-10-12T20:51:44.706Z,109.55
2022-10-12T20:54:16.041Z,101.70
2022-10-12T20:56:44.742Z,94.78
2022-10-12T20:59:12.896Z,95.90
2022-10-12T21:01:46.999Z,89.20
2022-10-12T21:04:19.586Z,88.03
2022-10-12T21:06:48.529Z,85.30
2022-10-12T21:09:16.867Z,84.10
2022-10-12T21:11:44.820Z,102.75
2022-10-12T21:14:13.746Z,74.90
2022-10-12T21:16:42.319Z,97.05
2022-10-12T21:19:17.206Z,84.65
2022-10-12T21:21:48.993Z,88.78
2022-10-12T21:24:17.097Z,104.15
2022-10-12T21:26:45.731Z,100.78
2022-10-12T21:29:14.775Z,100.55
2022-10-12T21:31:42.768Z,114.72
2022-10-12T21:34:11.301Z,117.13
2022-10-12T21:36:39.564Z,98.68
2022-10-12T21:39:15.265Z,92.90
2022-10-12T21:41:43.883Z,97.00
2022-10-12T21:44:12.429Z,106.00
2022-10-12T21:46:41.033Z,107.15
2022-10-12T21:49:10.848Z,98.25
2022-10-12T21:51:38.855Z,96.35
2022-10-12T21:54:08.212Z,106.72
2022-10-12T21:56:37.674Z,95.50
2022-10-12T21:59:07.085Z,95.35
2022-10-12T22:01:41.725Z,95.85
2022-10-12T22:04:15.549Z,93.82
2022-10-12T22:06:43.890Z,97.88
2022-10-12T22:09:19.207Z,96.43
2022-10-12T22:11:47.749Z,95.82
2022-10-12T22:14:18.816Z,86.75
2022-10-12T22:16:47.239Z,80.35
2022-10-12T22:19:19.166Z,80.18
2022-10-12T22:21:51.315Z,84.57
2022-10-12T22:24:21.689Z,95.32
2022-10-12T22:26:53.037Z,92.25
2022-10-12T22:29:20.994Z,82.68
2022-10-12T22:31:49.386Z,81.57
2022-10-12T22:34:17.714Z,81.60
2022-10-12T22:36:45.795Z,74.63
2022-10-12T22:39:14.054Z,79.72
2022-10-12T22:41:45.520Z,77.15
2022-10-12T22:44:13.736Z,76.72
2022-10-12T22:46:41.913Z,78.30
2022-10-12T22:49:10.810Z,61.63
2022-10-12T22:51:39.546Z,77.45
2022-10-12T22:54:09.649Z,71.05
2022-10-12T22:56:42.625Z,82.10
2022-10-12T22:59:15.809Z,63.83
2022-10-12T23:01:44.604Z,76.97
2022-10-12T23:04:12.771Z,76.50
2022-10-12T23:06:41.002Z,80.35
2022-10-12T23:09:09.042Z,86.43
2022-10-12T23:11:37.101Z,77.15
2022-10-12T23:14:05.224Z,73.70
2022-10-12T23:16:33.939Z,78.25
2022-10-12T23:19:05.532Z,78.47
2022-10-12T23:21:35.043Z,65.88
2022-10-12T23:24:05.229Z,72.97
2022-10-12T23:26:33.943Z,76.93
2022-10-12T23:29:02.539Z,79.75
2022-10-12T23:31:31.113Z,76.22
2022-10-12T23:34:06.210Z,76.75
2022-10-12T23:36:34.643Z,70.72
2022-10-12T23:39:05.518Z,69.25
2022-10-12T23:41:34.210Z,71.88
2022-10-12T23:44:02.596Z,70.93
2022-10-12T23:46:30.733Z,84.32
2022-10-12T23:48:59.854Z,70.22
2022-10-12T23:51:27.931Z,62.03
2022-10-12T23:53:55.903Z,59.20
2022-10-12T23:56:23.960Z,61.40
2022-10-12T23:58:52.378Z,75.30
